createdAt,value
2023-04-26T00:02:21.634Z,100987.56
2023-04-26T00:04:52.124Z,100987.63
2023-04-26T00:07:20.431Z,100993.53
2023-04-26T00:09:48.202Z,100993.47
2023-04-26T00:12:15.513Z,100988.59
2023-04-26T00:14:43.697Z,100990.56
2023-04-26T00:17:12.588Z,100997.94
2023-04-26T00:19:43.166Z,100998.13
2023-04-26T00:22:14.058Z,100995.81
2023-04-26T00:24:42.096Z,100994.56
2023-04-26T00:27:10.624Z,101002.97
2023-04-26T00:29:37.709Z,100999.44
2023-04-26T00:32:05.765Z,101005.66
2023-04-26T00:34:37.370Z,100997.94
2023-04-26T00:37:08.257Z,101007.66
2023-04-26T00:39:35.699Z,101003.47
2023-04-26T00:42:06.094Z,101002.56
2023-04-26T00:44:40.038Z,100999.00
2023-04-26T00:47:09.662Z,100999.84
2023-04-26T00:49:41.713Z,101000.53
2023-04-26T00:52:08.755Z,100991.13
2023-04-26T00:54:36.559Z,100997.09
2023-04-26T00:57:03.658Z,100995.22
2023-04-26T00:59:30.860Z,100998.59
2023-04-26T01:01:58.162Z,101002.44
2023-04-26T01:04:28.031Z,100998.03
2023-04-26T01:06:55.497Z,101000.28
2023-04-26T01:09:23.014Z,101002.03
2023-04-26T01:11:52.006Z,100995.69
2023-04-26T01:14:19.429Z,101006.75
2023-04-26T01:16:48.986Z,101008.47
2023-04-26T01:19:16.731Z,101002.78
2023-04-26T01:21:45.384Z,101001.84
2023-04-26T01:24:13.181Z,101005.97
2023-04-26T01:26:46.611Z,101007.66
2023-04-26T01:29:14.856Z,101006.91
2023-04-26T01:31:41.977Z,101010.25
2023-04-26T01:34:09.187Z,101012.03
2023-04-26T01:36:36.760Z,101014.69
2023-04-26T01:39:04.520Z,101018.25
2023-04-26T01:41:37.199Z,101014.59
2023-04-26T01:44:04.208Z,101016.91
2023-04-26T01:46:32.762Z,101020.47
2023-04-26T01:49:00.324Z,101024.59
2023-04-26T01:51:29.890Z,101026.31
2023-04-26T01:53:56.752Z,101023.91
2023-04-26T01:56:26.516Z,101019.19
2023-04-26T01:58:55.523Z,101010.91
2023-04-26T02:01:22.651Z,101017.06
2023-04-26T02:03:51.698Z,101021.53
2023-04-26T02:06:19.153Z,101020.09
2023-04-26T02:08:49.055Z,101028.59
2023-04-26T02:11:15.729Z,101029.63
2023-04-26T02:13:44.179Z,101028.31
2023-04-26T02:16:17.396Z,101024.94
2023-04-26T02:18:45.555Z,101026.19
2023-04-26T02:21:13.959Z,101023.91
2023-04-26T02:23:41.471Z,101025.81
2023-04-26T02:26:08.621Z,101031.72
2023-04-26T02:28:38.420Z,101038.06
2023-04-26T02:31:09.069Z,101038.31
2023-04-26T02:33:41.168Z,101036.41
2023-04-26T02:36:11.011Z,101025.56
2023-04-26T02:38:38.001Z,101023.44
2023-04-26T02:41:05.410Z,101027.00
2023-04-26T02:43:32.534Z,101028.75
2023-04-26T02:46:01.055Z,101035.06
2023-04-26T02:48:31.797Z,101028.69
2023-04-26T02:50:59.166Z,101031.50
2023-04-26T02:53:31.123Z,101037.63
2023-04-26T02:56:00.937Z,101038.84
2023-04-26T02:58:27.617Z,101046.59
2023-04-26T03:00:54.787Z,101044.06
2023-04-26T03:03:22.989Z,101047.03
2023-04-26T03:05:51.124Z,101039.03
2023-04-26T03:08:18.177Z,101040.44
2023-04-26T03:10:46.453Z,101033.44
2023-04-26T03:13:13.747Z,101029.50
2023-04-26T03:15:50.697Z,101031.50
2023-04-26T03:18:23.611Z,101037.44
2023-04-26T03:20:55.547Z,101035.44
2023-04-26T03:23:30.537Z,101033.53
2023-04-26T03:26:00.356Z,101039.06
2023-04-26T03:28:31.813Z,101032.31
2023-04-26T03:31:04.349Z,101038.09
2023-04-26T03:33:40.409Z,101049.34
2023-04-26T03:36:10.551Z,101043.94
2023-04-26T03:38:40.846Z,101040.66
2023-04-26T03:41:07.856Z,101042.31
2023-04-26T03:43:35.141Z,101030.16
2023-04-26T03:46:06.483Z,101037.66
2023-04-26T03:48:38.959Z,101043.19
2023-04-26T03:51:11.833Z,101040.94
2023-04-26T03:53:39.713Z,101033.97
2023-04-26T03:56:07.659Z,101029.72
2023-04-26T03:58:39.646Z,101030.88
2023-04-26T04:01:08.856Z,101033.75
2023-04-26T04:03:39.218Z,101033.91
2023-04-26T04:06:08.082Z,101035.22
2023-04-26T04:08:35.072Z,101043.09
2023-04-26T04:11:02.084Z,101048.19
2023-04-26T04:13:28.659Z,101067.31
2023-04-26T04:15:55.542Z,101069.31
2023-04-26T04:18:22.205Z,101075.16
2023-04-26T04:20:50.556Z,101080.94
2023-04-26T04:23:18.893Z,101065.88
2023-04-26T04:25:48.837Z,101041.41
2023-04-26T04:28:15.875Z,101043.28
2023-04-26T04:30:45.597Z,101050.03
2023-04-26T04:33:17.215Z,101052.59
2023-04-26T04:35:46.312Z,101058.81
2023-04-26T04:38:17.124Z,101058.22
2023-04-26T04:40:45.996Z,101060.66
2023-04-26T04:43:16.146Z,101062.31
2023-04-26T04:45:44.773Z,101064.44
2023-04-26T04:48:12.434Z,101062.41
2023-04-26T04:50:39.899Z,101068.81
2023-04-26T04:53:14.095Z,101066.63
2023-04-26T04:55:45.684Z,101080.66
2023-04-26T04:58:24.389Z,101076.50
2023-04-26T05:00:54.924Z,101084.47
2023-04-26T05:03:23.240Z,101075.28
2023-04-26T05:05:54.662Z,101070.66
2023-04-26T05:08:23.860Z,101068.25
2023-04-26T05:10:54.443Z,101072.16
2023-04-26T05:13:25.102Z,101070.84
2023-04-26T05:15:54.483Z,101066.47
2023-04-26T05:18:26.363Z,101073.59
2023-04-26T05:20:59.414Z,101069.69
2023-04-26T05:23:32.366Z,101061.69
2023-04-26T05:26:05.474Z,101065.22
2023-04-26T05:28:34.051Z,101069.44
2023-04-26T05:31:02.689Z,101073.13
2023-04-26T05:33:31.960Z,101064.28
2023-04-26T05:35:59.743Z,101079.06
2023-04-26T05:38:27.208Z,101079.66
2023-04-26T05:40:54.301Z,101077.94
2023-04-26T05:43:22.160Z,101076.31
2023-04-26T05:45:56.826Z,101078.31
2023-04-26T05:48:24.747Z,101078.72
2023-04-26T05:50:53.284Z,101083.50
2023-04-26T05:53:20.380Z,101076.22
2023-04-26T05:55:48.895Z,101088.56
2023-04-26T05:58:15.808Z,101087.69
2023-04-26T06:00:46.825Z,101084.53
2023-04-26T06:03:13.578Z,101088.06
2023-04-26T06:05:41.678Z,101094.06
2023-04-26T06:08:10.756Z,101105.56
2023-04-26T06:10:45.553Z,101107.97
2023-04-26T06:13:12.480Z,101098.84
2023-04-26T06:15:39.854Z,101096.47
2023-04-26T06:18:07.497Z,101091.88
2023-04-26T06:20:34.879Z,101095.53
2023-04-26T06:23:03.191Z,101088.50
2023-04-26T06:25:30.330Z,101096.03
2023-04-26T06:27:59.416Z,101099.28
2023-04-26T06:30:27.450Z,101093.31
2023-04-26T06:32:54.472Z,101093.63
2023-04-26T06:35:26.132Z,101091.31
2023-04-26T06:37:53.400Z,101098.63
2023-04-26T06:40:21.138Z,101102.16
2023-04-26T06:42:49.292Z,101093.53
2023-04-26T06:45:17.231Z,101096.25
2023-04-26T06:47:44.038Z,101092.13
2023-04-26T06:50:11.244Z,101095.81
2023-04-26T06:52:44.646Z,101099.78
2023-04-26T06:55:14.422Z,101090.38
2023-04-26T06:57:42.615Z,101093.41
2023-04-26T07:00:15.111Z,101093.53
2023-04-26T07:02:44.525Z,101096.88
2023-04-26T07:05:24.411Z,101095.53
2023-04-26T07:07:57.019Z,101094.56
2023-04-26T07:10:24.333Z,101094.59
2023-04-26T07:12:54.128Z,101104.16
2023-04-26T07:15:29.818Z,101107.72
2023-04-26T07:17:57.945Z,101105.06
2023-04-26T07:20:27.575Z,101096.19
2023-04-26T07:22:54.796Z,101110.09
2023-04-26T07:25:22.251Z,101096.63
2023-04-26T07:27:52.505Z,101111.34
2023-04-26T07:30:34.991Z,101103.78
2023-04-26T07:33:02.818Z,101113.91
2023-04-26T07:35:40.839Z,101114.19
2023-04-26T07:38:15.079Z,101114.50
2023-04-26T07:40:46.205Z,101105.84
2023-04-26T07:43:15.734Z,101101.56
2023-04-26T07:45:45.115Z,101107.44
2023-04-26T07:48:18.696Z,101099.78
2023-04-26T07:50:49.198Z,101108.53
2023-04-26T07:53:21.524Z,101112.25
2023-04-26T07:55:52.079Z,101109.13
2023-04-26T07:58:19.599Z,101106.03
2023-04-26T08:00:56.177Z,101106.53
2023-04-26T08:03:24.095Z,101106.47
2023-04-26T08:05:58.057Z,101111.81
2023-04-26T08:08:27.334Z,101106.53
2023-04-26T08:10:54.196Z,101117.97
2023-04-26T08:13:44.712Z,101116.97
2023-04-26T08:16:12.226Z,101112.06
2023-04-26T08:18:41.114Z,101106.31
2023-04-26T08:21:10.274Z,101113.78
2023-04-26T08:23:38.534Z,101101.75
2023-04-26T08:26:07.923Z,101103.19
2023-04-26T08:28:35.764Z,101109.47
2023-04-26T08:31:03.219Z,101113.38
2023-04-26T08:33:29.906Z,101124.19
2023-04-26T08:36:03.959Z,101134.28
2023-04-26T08:38:32.262Z,101127.88
2023-04-26T08:41:02.256Z,101137.03
2023-04-26T08:43:33.939Z,101134.06
2023-04-26T08:46:03.009Z,101137.22
2023-04-26T08:48:35.095Z,101136.94
2023-04-26T08:51:03.661Z,101124.00
2023-04-26T08:53:31.034Z,101133.00
2023-04-26T08:56:03.357Z,101133.75
2023-04-26T08:58:35.280Z,101128.59
2023-04-26T09:01:03.990Z,101128.59
2023-04-26T09:03:31.351Z,101118.44
2023-04-26T09:06:01.124Z,101121.78
2023-04-26T09:08:30.665Z,101115.63
2023-04-26T09:10:58.661Z,101127.94
2023-04-26T09:15:56.425Z,101178.28
2023-04-26T09:18:25.502Z,101168.91
2023-04-26T09:21:14.434Z,101172.19
2023-04-26T09:24:04.509Z,101168.84
2023-04-26T09:26:32.977Z,101159.28
2023-04-26T09:29:20.343Z,101165.19
2023-04-26T09:31:50.114Z,101156.31
2023-04-26T09:34:20.266Z,101157.22
2023-04-26T09:36:51.677Z,101150.44
2023-04-26T09:39:38.400Z,101155.13
2023-04-26T09:42:05.195Z,101160.31
2023-04-26T09:44:32.375Z,101155.25
2023-04-26T09:47:02.288Z,101149.59
2023-04-26T09:49:40.637Z,101151.13
2023-04-26T09:52:10.311Z,101143.84
2023-04-26T09:54:41.604Z,101143.53
2023-04-26T09:57:08.265Z,101139.38
2023-04-26T09:59:45.629Z,101148.06
2023-04-26T10:02:14.659Z,101147.53
2023-04-26T10:04:42.047Z,101141.69
2023-04-26T10:07:09.607Z,101150.88
2023-04-26T10:09:36.513Z,101149.09
2023-04-26T10:12:03.448Z,101158.38
2023-04-26T10:14:31.191Z,101147.34
2023-04-26T10:16:58.729Z,101144.78
2023-04-26T10:19:26.555Z,101134.81
2023-04-26T10:21:54.943Z,101141.91
2023-04-26T10:24:28.680Z,101146.69
2023-04-26T10:26:57.706Z,101142.19
2023-04-26T10:29:25.790Z,101132.88
2023-04-26T10:32:09.581Z,101139.78
2023-04-26T10:34:37.457Z,101141.50
2023-04-26T10:37:14.431Z,101159.28
2023-04-26T10:39:43.194Z,101186.88
2023-04-26T10:42:31.013Z,101197.88
2023-04-26T10:45:02.978Z,101208.13
2023-04-26T10:47:35.282Z,101210.59
2023-04-26T10:50:11.528Z,101204.53
2023-04-26T10:52:57.887Z,101198.56
2023-04-26T10:55:44.634Z,101189.59
2023-04-26T10:58:30.404Z,101186.28
2023-04-26T11:01:13.589Z,101185.63
2023-04-26T11:04:05.178Z,101181.75
2023-04-26T11:06:54.364Z,101172.22
2023-04-26T11:09:37.158Z,101162.78
2023-04-26T11:12:08.091Z,101158.91
2023-04-26T11:14:39.167Z,101156.53
2023-04-26T11:17:11.777Z,101158.09
2023-04-26T11:19:38.847Z,101150.88
2023-04-26T11:22:07.958Z,101147.69
2023-04-26T11:24:40.035Z,101143.16
2023-04-26T11:27:10.324Z,101131.34
2023-04-26T11:29:43.608Z,101142.22
2023-04-26T11:32:13.135Z,101132.78
2023-04-26T11:34:40.403Z,101146.38
2023-04-26T11:37:07.691Z,101145.34
2023-04-26T11:39:34.728Z,101148.34
2023-04-26T11:42:08.604Z,101154.47
2023-04-26T11:44:39.057Z,101149.78
2023-04-26T11:47:06.868Z,101147.78
2023-04-26T11:49:34.810Z,101143.97
2023-04-26T11:52:03.199Z,101152.00
2023-04-26T11:54:35.262Z,101153.69
2023-04-26T11:57:13.785Z,101141.56
2023-04-26T11:59:42.274Z,101150.50
2023-04-26T12:02:10.191Z,101141.94
2023-04-26T12:04:42.393Z,101146.13
2023-04-26T12:07:09.942Z,101153.00
2023-04-26T12:09:43.509Z,101148.88
2023-04-26T12:12:11.603Z,101153.78
2023-04-26T12:14:39.678Z,101151.97
2023-04-26T12:17:08.011Z,101158.44
2023-04-26T12:19:39.275Z,101173.09
2023-04-26T12:22:07.251Z,101157.44
2023-04-26T12:24:35.893Z,101174.19
2023-04-26T12:27:09.092Z,101169.59
2023-04-26T12:29:36.336Z,101164.72
2023-04-26T12:32:04.644Z,101172.22
2023-04-26T12:34:31.826Z,101164.22
2023-04-26T12:36:58.673Z,101189.03
2023-04-26T12:39:25.411Z,101199.88
2023-04-26T12:41:55.374Z,101207.13
2023-04-26T12:44:22.779Z,101205.81
2023-04-26T12:46:50.418Z,101199.09
2023-04-26T12:49:16.845Z,101206.94
2023-04-26T12:51:43.466Z,101204.31
2023-04-26T12:54:10.608Z,101207.97
2023-04-26T12:56:45.198Z,101204.53
2023-04-26T12:59:14.383Z,101214.50
2023-04-26T13:01:42.185Z,101217.22
2023-04-26T13:04:12.783Z,101223.56
2023-04-26T13:06:39.887Z,101214.06
2023-04-26T13:09:08.230Z,101211.34
2023-04-26T13:11:34.979Z,101200.63
2023-04-26T13:14:05.432Z,101210.34
2023-04-26T13:16:37.235Z,101207.78
2023-04-26T13:19:09.752Z,101204.22
2023-04-26T13:21:49.960Z,101190.78
2023-04-26T13:24:19.236Z,101207.44
2023-04-26T13:26:45.598Z,101221.00
2023-04-26T13:29:12.327Z,101221.53
2023-04-26T13:31:40.028Z,101222.69
2023-04-26T13:34:08.347Z,101222.09
2023-04-26T13:36:35.358Z,101231.94
2023-04-26T13:39:05.258Z,101233.69
2023-04-26T13:41:35.658Z,101251.34
2023-04-26T13:44:03.679Z,101251.00
2023-04-26T13:46:31.764Z,101256.69
2023-04-26T13:49:02.747Z,101254.53
2023-04-26T13:51:34.175Z,101254.88
2023-04-26T13:54:02.331Z,101245.66
2023-04-26T13:56:29.769Z,101252.69
2023-04-26T13:59:11.942Z,101246.31
2023-04-26T14:02:08.199Z,101250.72
2023-04-26T14:04:36.530Z,101240.41
2023-04-26T14:07:03.576Z,101244.22
2023-04-26T14:09:30.512Z,101241.06
2023-04-26T14:12:07.847Z,101237.19
2023-04-26T14:14:38.354Z,101244.69
2023-04-26T14:17:05.288Z,101244.66
2023-04-26T14:19:31.881Z,101249.97
2023-04-26T14:21:58.506Z,101254.59
2023-04-26T14:24:26.036Z,101269.03
2023-04-26T14:26:53.096Z,101254.34
2023-04-26T14:29:20.840Z,101263.53
2023-04-26T14:31:49.200Z,101261.06
2023-04-26T14:34:24.786Z,101260.94
2023-04-26T14:36:52.605Z,101262.63
2023-04-26T14:39:19.150Z,101260.28
2023-04-26T14:41:46.502Z,101263.47
2023-04-26T14:44:15.539Z,101272.81
2023-04-26T14:46:42.558Z,101268.03
2023-04-26T14:49:13.215Z,101265.03
2023-04-26T14:51:40.033Z,101273.72
2023-04-26T14:54:10.095Z,101264.00
2023-04-26T14:56:38.382Z,101267.25
2023-04-26T14:59:06.363Z,101258.66
2023-04-26T15:01:33.227Z,101259.56
2023-04-26T15:04:03.183Z,101262.19
2023-04-26T15:06:34.145Z,101257.91
2023-04-26T15:09:04.487Z,101265.47
2023-04-26T15:11:38.929Z,101264.03
2023-04-26T15:14:05.519Z,101258.97
2023-04-26T15:16:32.380Z,101262.06
2023-04-26T15:19:00.205Z,101257.06
2023-04-26T15:21:30.963Z,101257.69
2023-04-26T15:24:00.276Z,101264.63
2023-04-26T15:26:29.677Z,101266.25
2023-04-26T15:28:56.316Z,101276.31
2023-04-26T15:31:25.912Z,101280.66
2023-04-26T15:34:05.087Z,101275.69
2023-04-26T15:36:34.559Z,101271.69
2023-04-26T15:39:06.152Z,101268.22
2023-04-26T15:41:32.565Z,101265.75
2023-04-26T15:44:00.179Z,101270.53
2023-04-26T15:46:28.598Z,101267.72
2023-04-26T15:48:59.392Z,101266.31
2023-04-26T15:51:26.764Z,101253.09
2023-04-26T15:53:55.551Z,101270.66
2023-04-26T15:56:26.296Z,101274.00
2023-04-26T15:58:59.278Z,101274.84
2023-04-26T16:01:25.947Z,101281.00
2023-04-26T16:03:53.414Z,101269.56
2023-04-26T16:06:21.119Z,101267.19
2023-04-26T16:08:48.235Z,101270.09
2023-04-26T16:11:16.118Z,101271.25
2023-04-26T16:13:44.540Z,101272.19
2023-04-26T16:16:19.806Z,101281.28
2023-04-26T16:18:47.576Z,101278.28
2023-04-26T16:21:14.391Z,101286.91
2023-04-26T16:23:42.143Z,101282.75
2023-04-26T16:26:09.477Z,101283.19
2023-04-26T16:28:36.649Z,101285.66
2023-04-26T16:31:07.548Z,101284.44
2023-04-26T16:33:41.136Z,101290.88
2023-04-26T16:36:09.301Z,101294.00
2023-04-26T16:38:37.466Z,101295.72
2023-04-26T16:41:11.592Z,101302.13
2023-04-26T16:43:46.364Z,101296.69
2023-04-26T16:46:21.910Z,101295.38
2023-04-26T16:48:51.098Z,101293.25
2023-04-26T16:51:20.666Z,101295.50
2023-04-26T16:53:47.797Z,101294.06
2023-04-26T16:56:17.071Z,101305.53
2023-04-26T16:58:49.902Z,101298.41
2023-04-26T17:01:22.747Z,101295.41
2023-04-26T17:03:58.239Z,101303.69
2023-04-26T17:06:43.828Z,101303.91
2023-04-26T17:09:16.976Z,101297.19
2023-04-26T17:11:45.586Z,101306.16
2023-04-26T17:14:19.699Z,101300.44
2023-04-26T17:16:56.655Z,101305.81
2023-04-26T17:19:32.413Z,101304.97
2023-04-26T17:22:00.784Z,101310.59
2023-04-26T17:24:54.166Z,101309.31
2023-04-26T17:27:22.418Z,101312.13
2023-04-26T17:29:50.543Z,101317.28
2023-04-26T17:32:18.780Z,101312.78
2023-04-26T17:34:47.457Z,101317.03
2023-04-26T17:37:15.879Z,101315.41
2023-04-26T17:39:43.307Z,101318.47
2023-04-26T17:42:14.376Z,101321.06
2023-04-26T17:44:44.230Z,101318.22
2023-04-26T17:47:11.997Z,101325.59
2023-04-26T17:49:39.540Z,101319.63
2023-04-26T17:52:07.157Z,101320.44
2023-04-26T17:54:34.749Z,101321.13
2023-04-26T17:57:05.166Z,101322.94
2023-04-26T17:59:32.615Z,101325.13
2023-04-26T18:02:00.172Z,101328.72
2023-04-26T18:04:34.187Z,101337.16
2023-04-26T18:07:04.709Z,101333.44
2023-04-26T18:09:33.583Z,101344.59
2023-04-26T18:12:04.012Z,101340.41
2023-04-26T18:14:33.102Z,101347.47
2023-04-26T18:17:01.919Z,101345.63
2023-04-26T18:19:29.394Z,101347.19
2023-04-26T18:21:57.383Z,101347.16
2023-04-26T18:24:26.021Z,101356.59
2023-04-26T18:27:00.430Z,101352.50
2023-04-26T18:29:28.523Z,101352.34
2023-04-26T18:31:57.630Z,101345.81
2023-04-26T18:34:24.668Z,101347.16
2023-04-26T18:36:51.938Z,101348.84
2023-04-26T18:39:19.450Z,101356.97
2023-04-26T18:41:48.657Z,101358.19
2023-04-26T18:44:15.599Z,101349.81
2023-04-26T18:46:46.638Z,101360.00
2023-04-26T18:49:16.779Z,101355.03
2023-04-26T18:51:46.247Z,101361.09
2023-04-26T18:54:14.807Z,101358.03
2023-04-26T18:56:41.865Z,101358.44
2023-04-26T18:59:14.986Z,101360.16
2023-04-26T19:01:46.409Z,101358.44
2023-04-26T19:04:13.222Z,101367.09
2023-04-26T19:06:44.415Z,101368.75
2023-04-26T19:09:12.055Z,101369.06
2023-04-26T19:11:40.481Z,101376.41
2023-04-26T19:14:08.038Z,101374.56
2023-04-26T19:16:35.579Z,101385.91
2023-04-26T19:19:03.333Z,101379.34
2023-04-26T19:21:32.375Z,101386.69
2023-04-26T19:23:59.435Z,101376.34
2023-04-26T19:26:26.033Z,101388.88
2023-04-26T19:28:52.821Z,101385.63
2023-04-26T19:31:19.510Z,101387.19
2023-04-26T19:33:46.936Z,101392.69
2023-04-26T19:36:13.420Z,101389.81
2023-04-26T19:38:40.021Z,101394.34
2023-04-26T19:41:07.970Z,101392.09
2023-04-26T19:43:34.870Z,101398.38
2023-04-26T19:46:10.846Z,101390.63
2023-04-26T19:48:37.477Z,101395.25
2023-04-26T19:51:04.042Z,101392.53
2023-04-26T19:53:30.934Z,101398.38
2023-04-26T19:55:57.634Z,101396.75
2023-04-26T19:58:25.421Z,101393.56
2023-04-26T20:00:52.302Z,101395.84
2023-04-26T20:03:19.005Z,101393.56
2023-04-26T20:05:45.937Z,101397.94
2023-04-26T20:08:12.384Z,101391.91
2023-04-26T20:10:38.870Z,101395.91
2023-04-26T20:13:05.604Z,101405.91
2023-04-26T20:15:37.331Z,101403.41
2023-04-26T20:18:04.063Z,101396.47
2023-04-26T20:20:30.995Z,101402.31
2023-04-26T20:22:57.602Z,101402.50
2023-04-26T20:25:24.706Z,101408.09
2023-04-26T20:27:51.580Z,101408.66
2023-04-26T20:30:19.036Z,101409.50
2023-04-26T20:32:46.608Z,101414.22
2023-04-26T20:35:14.175Z,101404.78
2023-04-26T20:37:44.096Z,101405.31
2023-04-26T20:40:12.670Z,101404.94
2023-04-26T20:42:39.857Z,101408.66
2023-04-26T20:45:07.663Z,101413.63
2023-04-26T20:47:34.472Z,101410.78
2023-04-26T20:50:01.158Z,101405.22
2023-04-26T20:52:29.571Z,101409.19
2023-04-26T20:54:59.011Z,101410.09
2023-04-26T20:57:26.135Z,101415.94
2023-04-26T20:59:54.051Z,101417.25
2023-04-26T21:02:20.765Z,101415.81
2023-04-26T21:04:48.351Z,101414.50
2023-04-26T21:07:16.180Z,101427.50
2023-04-26T21:09:43.280Z,101428.72
2023-04-26T21:12:12.822Z,101429.94
2023-04-26T21:14:40.756Z,101431.19
2023-04-26T21:17:09.274Z,101430.41
2023-04-26T21:19:36.062Z,101420.19
2023-04-26T21:22:03.249Z,101429.53
2023-04-26T21:24:31.202Z,101427.19
2023-04-26T21:26:59.857Z,101431.78
2023-04-26T21:29:26.592Z,101424.97
2023-04-26T21:31:54.228Z,101427.53
2023-04-26T21:34:22.682Z,101427.19
2023-04-26T21:36:50.570Z,101430.19
2023-04-26T21:39:19.750Z,101428.84
2023-04-26T21:41:46.323Z,101427.25
2023-04-26T21:44:13.358Z,101430.47
2023-04-26T21:46:41.237Z,101435.09
2023-04-26T21:49:11.210Z,101435.84
2023-04-26T21:51:38.936Z,101434.00
2023-04-26T21:54:08.296Z,101441.75
2023-04-26T21:56:35.259Z,101444.41
2023-04-26T21:59:02.640Z,101442.72
2023-04-26T22:01:33.048Z,101441.41
2023-04-26T22:04:01.048Z,101444.69
2023-04-26T22:06:30.132Z,101446.47
2023-04-26T22:08:57.108Z,101441.88
2023-04-26T22:11:24.432Z,101440.00
2023-04-26T22:13:51.487Z,101438.63
2023-04-26T22:16:19.920Z,101439.91
2023-04-26T22:18:47.079Z,101435.13
2023-04-26T22:21:14.301Z,101435.97
2023-04-26T22:23:41.960Z,101444.53
2023-04-26T22:26:09.087Z,101441.28
2023-04-26T22:28:37.038Z,101450.56
2023-04-26T22:31:03.777Z,101452.94
2023-04-26T22:33:31.257Z,101454.19
2023-04-26T22:36:00.388Z,101452.41
2023-04-26T22:38:28.245Z,101449.84
2023-04-26T22:40:55.625Z,101446.34
2023-04-26T22:43:23.595Z,101450.34
2023-04-26T22:45:51.457Z,101442.56
2023-04-26T22:48:19.020Z,101453.63
2023-04-26T22:50:50.459Z,101444.75
2023-04-26T22:53:17.610Z,101447.47
2023-04-26T22:55:44.762Z,101450.44
2023-04-26T22:58:13.286Z,101454.78
2023-04-26T23:00:41.068Z,101451.25
2023-04-26T23:03:08.390Z,101454.41
2023-04-26T23:05:35.475Z,101455.06
2023-04-26T23:08:02.669Z,101455.41
2023-04-26T23:10:30.198Z,101454.34
2023-04-26T23:12:57.741Z,101466.19
2023-04-26T23:15:25.866Z,101463.41
2023-04-26T23:17:55.199Z,101460.63
2023-04-26T23:20:24.110Z,101463.50
2023-04-26T23:22:51.697Z,101465.78
2023-04-26T23:25:20.209Z,101458.47
2023-04-26T23:27:48.826Z,101456.72
2023-04-26T23:30:18.975Z,101460.94
2023-04-26T23:32:48.257Z,101471.09
2023-04-26T23:35:17.244Z,101471.72
2023-04-26T23:37:51.787Z,101468.59
2023-04-26T23:40:20.269Z,101470.00
2023-04-26T23:42:46.770Z,101463.28
2023-04-26T23:45:13.802Z,101468.44
2023-04-26T23:47:41.802Z,101473.06
2023-04-26T23:50:10.753Z,101469.69
2023-04-26T23:52:37.617Z,101467.75
2023-04-26T23:55:04.950Z,101477.56
2023-04-26T23:57:32.752Z,101480.44
